Time;durP1;ratioP1;P1;durP2;ratioP2;P2;SDS_P1;SDS_P2;PMS_P1;PMS_P2;Temp;Humidity;BMP_temperature;BMP_pressure;BME280_temperature;BME280_humidity;BME280_pressure;Samples;Min_cycle;Max_cycle;Signal;HPM_P1;HPM_P2
2023/11/14 00:00:04;;;;;;;9.00;6.28;;;26.30;99.90;;;;;;4993085;28;20027;-58
2023/11/14 00:02:30;;;;;;;8.40;5.88;;;26.30;99.90;;;;;;4992966;28;20495;-58
2023/11/14 00:04:55;;;;;;;10.75;6.95;;;26.30;99.90;;;;;;4991904;28;20030;-58
2023/11/14 00:07:21;;;;;;;8.25;6.75;;;26.30;99.90;;;;;;4993139;28;20030;-58
2023/11/14 00:09:47;;;;;;;9.88;6.85;;;26.30;99.90;;;;;;4993325;28;20030;-58
2023/11/14 00:12:14;;;;;;;10.68;6.65;;;26.20;99.90;;;;;;4993012;28;20027;-58
2023/11/14 00:14:44;;;;;;;8.77;6.33;;;26.30;99.90;;;;;;4992995;28;20030;-58
2023/11/14 00:17:10;;;;;;;8.82;5.95;;;26.20;99.90;;;;;;4992944;28;20275;-58
2023/11/14 00:19:35;;;;;;;7.38;6.20;;;26.20;99.90;;;;;;4992996;28;20026;-58
2023/11/14 00:22:01;;;;;;;7.00;5.45;;;26.20;99.90;;;;;;4992836;28;20386;-58
2023/11/14 00:24:28;;;;;;;8.38;5.93;;;26.20;99.90;;;;;;4993024;28;20022;-58
2023/11/14 00:26:56;;;;;;;8.27;6.00;;;26.20;99.90;;;;;;4998130;28;20026;-59
2023/11/14 00:29:22;;;;;;;7.95;5.38;;;26.20;99.90;;;;;;4999639;28;20478;-58
2023/11/14 00:31:48;;;;;;;8.38;5.72;;;26.20;99.90;;;;;;4999528;28;20034;-59
2023/11/14 00:34:17;;;;;;;6.22;5.10;;;26.20;99.90;;;;;;4999166;28;20030;-58
2023/11/14 00:36:42;;;;;;;7.75;5.88;;;26.10;99.90;;;;;;4999277;28;20023;-58
2023/11/14 00:39:09;;;;;;;7.20;5.75;;;26.10;99.90;;;;;;4999382;28;20033;-58
2023/11/14 00:41:35;;;;;;;6.97;5.03;;;26.10;99.90;;;;;;4999162;28;20064;-58
2023/11/14 00:44:02;;;;;;;7.85;5.18;;;26.10;99.90;;;;;;4998104;28;20031;-59
2023/11/14 00:46:28;;;;;;;7.78;5.65;;;26.00;99.90;;;;;;4999179;28;20493;-59
2023/11/14 00:48:54;;;;;;;7.47;5.53;;;26.10;99.90;;;;;;4999201;28;20034;-59
2023/11/14 00:51:20;;;;;;;8.35;5.35;;;26.00;99.90;;;;;;4999651;28;20084;-58
2023/11/14 00:53:49;;;;;;;7.93;5.22;;;26.00;99.90;;;;;;4998044;28;20011;-58
2023/11/14 00:56:15;;;;;;;9.07;6.05;;;26.00;99.90;;;;;;4999140;28;20030;-59
2023/11/14 00:58:41;;;;;;;8.38;5.43;;;26.00;99.90;;;;;;4999194;28;20089;-59
2023/11/14 01:01:07;;;;;;;6.72;5.22;;;26.00;99.90;;;;;;4999461;28;20487;-58
2023/11/14 01:03:35;;;;;;;8.25;5.18;;;26.00;99.90;;;;;;4999119;28;20057;-59
2023/11/14 01:06:01;;;;;;;7.03;5.00;;;26.00;99.90;;;;;;4999050;28;20105;-56
2023/11/14 01:08:27;;;;;;;6.80;4.85;;;26.00;99.90;;;;;;4999003;28;20117;-56
2023/11/14 01:10:53;;;;;;;6.80;5.05;;;25.90;99.90;;;;;;4999274;28;20030;-55
2023/11/14 01:13:19;;;;;;;8.43;5.47;;;25.90;99.90;;;;;;4999016;28;20030;-56
2023/11/14 01:15:45;;;;;;;6.22;5.10;;;25.90;99.90;;;;;;4999072;28;20026;-58
2023/11/14 01:18:11;;;;;;;6.82;5.03;;;25.90;99.90;;;;;;4997607;28;20375;-57
2023/11/14 01:20:37;;;;;;;8.23;5.07;;;25.90;99.90;;;;;;4998993;28;20014;-57
2023/11/14 01:23:03;;;;;;;6.75;5.00;;;25.90;99.90;;;;;;4998957;28;20042;-57
2023/11/14 01:25:29;;;;;;;6.65;5.15;;;25.80;99.90;;;;;;4998885;28;20029;-57
2023/11/14 01:27:55;;;;;;;6.90;4.57;;;25.80;99.90;;;;;;4999093;28;20030;-57
2023/11/14 01:30:20;;;;;;;7.03;5.10;;;25.90;99.90;;;;;;4997649;28;20498;-57
2023/11/14 01:32:46;;;;;;;7.57;4.60;;;25.80;99.90;;;;;;4997732;28;20120;-56
2023/11/14 01:35:12;;;;;;;7.53;5.13;;;25.80;99.90;;;;;;4998863;28;20491;-57
2023/11/14 01:37:38;;;;;;;5.60;4.25;;;25.80;99.90;;;;;;4995663;28;20022;-57
2023/11/14 01:40:05;;;;;;;5.85;4.88;;;25.80;99.90;;;;;;4995671;28;20034;-58
2023/11/14 01:42:32;;;;;;;5.82;4.85;;;25.80;99.90;;;;;;4995590;28;20106;-57
2023/11/14 01:44:57;;;;;;;5.53;4.93;;;25.80;99.90;;;;;;4995556;28;20068;-58
2023/11/14 01:47:26;;;;;;;7.65;4.70;;;25.80;99.90;;;;;;4995905;28;20564;-57
2023/11/14 01:49:53;;;;;;;7.07;4.93;;;25.80;99.90;;;;;;4994691;28;20018;-57
2023/11/14 01:52:19;;;;;;;6.93;5.10;;;25.80;99.90;;;;;;4994273;28;20026;-59
2023/11/14 01:54:46;;;;;;;7.37;4.90;;;25.70;99.90;;;;;;4995487;28;20725;-57
2023/11/14 01:57:13;;;;;;;6.07;4.60;;;25.70;99.90;;;;;;4995699;28;20026;-57
2023/11/14 01:59:41;;;;;;;6.45;4.68;;;25.70;99.90;;;;;;4995454;28;20057;-57
2023/11/14 02:02:08;;;;;;;6.82;4.55;;;25.70;99.90;;;;;;4995607;28;20185;-57
2023/11/14 02:04:36;;;;;;;6.23;4.63;;;25.70;99.90;;;;;;4985149;28;20027;-57
2023/11/14 02:07:02;;;;;;;5.53;4.40;;;25.70;99.90;;;;;;4974037;28;20269;-57
2023/11/14 02:09:28;;;;;;;8.07;4.60;;;25.70;99.90;;;;;;4974587;28;20038;-57
2023/11/14 02:11:55;;;;;;;7.57;4.50;;;25.70;99.90;;;;;;4975312;28;20027;-58
2023/11/14 02:14:22;;;;;;;6.93;4.68;;;25.60;99.90;;;;;;4976214;28;20034;-57
2023/11/14 02:16:49;;;;;;;5.25;3.92;;;25.60;99.90;;;;;;4974343;28;20059;-59
2023/11/14 02:19:15;;;;;;;7.93;4.90;;;25.60;99.90;;;;;;4974083;28;20102;-57
2023/11/14 02:21:42;;;;;;;5.68;4.35;;;25.60;99.90;;;;;;4975370;28;20284;-59
2023/11/14 02:24:12;;;;;;;6.73;4.43;;;25.60;99.90;;;;;;4990791;28;20077;-57
2023/11/14 02:26:38;;;;;;;8.40;4.72;;;25.60;99.90;;;;;;4973673;28;20027;-57
2023/11/14 02:29:04;;;;;;;7.43;4.93;;;25.60;99.90;;;;;;4971947;28;20109;-58
2023/11/14 02:31:29;;;;;;;5.30;4.40;;;25.50;99.90;;;;;;4975295;28;20050;-57
2023/11/14 02:33:55;;;;;;;5.53;3.97;;;25.50;99.90;;;;;;4974261;28;20550;-57
2023/11/14 02:36:21;;;;;;;10.63;3.90;;;25.50;99.90;;;;;;4973171;28;20106;-57
2023/11/14 02:38:47;;;;;;;5.72;3.97;;;25.50;99.90;;;;;;4973255;28;20066;-57
2023/11/14 02:41:15;;;;;;;5.40;4.00;;;25.50;99.90;;;;;;4975052;28;20034;-57
2023/11/14 02:43:41;;;;;;;5.85;4.07;;;25.50;99.90;;;;;;4974011;28;20031;-58
2023/11/14 02:46:07;;;;;;;6.15;3.97;;;25.50;99.90;;;;;;4971813;28;20030;-56
2023/11/14 02:48:34;;;;;;;5.85;4.10;;;25.50;99.90;;;;;;4973672;28;20019;-58
2023/11/14 02:50:59;;;;;;;5.60;4.03;;;25.50;99.90;;;;;;4991326;28;20483;-58
2023/11/14 02:53:25;;;;;;;5.35;4.07;;;25.40;99.90;;;;;;4973333;28;20122;-57
2023/11/14 02:55:52;;;;;;;5.10;4.30;;;25.40;99.90;;;;;;4972993;28;20027;-57
2023/11/14 02:58:19;;;;;;;6.38;4.65;;;25.40;99.90;;;;;;4975789;28;20105;-59
2023/11/14 03:00:47;;;;;;;4.38;3.20;;;25.40;99.90;;;;;;4974889;28;20483;-58
2023/11/14 03:03:13;;;;;;;4.20;3.75;;;25.40;99.90;;;;;;4988040;28;20591;-58
2023/11/14 03:05:39;;;;;;;4.28;3.50;;;25.40;99.90;;;;;;4971628;28;20105;-58
2023/11/14 03:08:04;;;;;;;4.82;3.40;;;25.40;99.90;;;;;;4976555;28;20026;-58
2023/11/14 03:10:33;;;;;;;5.80;3.35;;;25.40;99.90;;;;;;4973276;28;20423;-58
2023/11/14 03:13:00;;;;;;;4.05;3.10;;;25.40;99.90;;;;;;4972616;28;20077;-57
2023/11/14 03:15:26;;;;;;;4.88;3.55;;;25.30;99.90;;;;;;4972453;28;20023;-57
2023/11/14 03:17:59;;;;;;;4.65;3.47;;;25.30;99.90;;;;;;4976548;28;20073;-57
2023/11/14 03:20:29;;;;;;;4.45;3.25;;;25.30;99.90;;;;;;4972892;28;20113;-58
2023/11/14 03:22:55;;;;;;;7.45;4.32;;;25.30;99.90;;;;;;4972169;28;20058;-57
2023/11/14 03:25:22;;;;;;;4.13;3.10;;;25.30;99.90;;;;;;4974076;28;20019;-57
2023/11/14 03:27:48;;;;;;;6.57;3.90;;;25.30;99.90;;;;;;4973824;28;20027;-57
2023/11/14 03:30:14;;;;;;;4.80;3.40;;;25.30;99.90;;;;;;4972539;28;20031;-58
2023/11/14 03:32:40;;;;;;;4.97;3.58;;;25.20;99.90;;;;;;4973900;28;20504;-58
2023/11/14 03:35:06;;;;;;;4.20;3.17;;;25.30;99.90;;;;;;4974532;28;20034;-56
2023/11/14 03:37:34;;;;;;;4.32;3.30;;;25.20;99.90;;;;;;4972982;28;20019;-57
2023/11/14 03:39:59;;;;;;;3.90;3.22;;;25.20;99.90;;;;;;4972448;28;20023;-58
2023/11/14 03:42:25;;;;;;;4.05;3.38;;;25.20;99.90;;;;;;4972026;28;20061;-59
2023/11/14 03:44:51;;;;;;;4.55;3.65;;;25.20;99.90;;;;;;4976259;28;20031;-58
2023/11/14 03:47:17;;;;;;;5.65;3.42;;;25.20;99.90;;;;;;4972625;28;20468;-58
2023/11/14 03:49:42;;;;;;;3.60;2.88;;;25.20;99.90;;;;;;4972962;28;20069;-58
2023/11/14 03:52:08;;;;;;;4.65;3.47;;;25.20;99.90;;;;;;4973898;28;20040;-59
2023/11/14 03:54:35;;;;;;;4.07;3.10;;;25.20;99.90;;;;;;4973540;28;20025;-59
2023/11/14 03:57:01;;;;;;;4.88;3.47;;;25.10;99.90;;;;;;4973324;28;20493;-59
2023/11/14 03:59:27;;;;;;;5.88;3.70;;;25.20;99.90;;;;;;4971751;28;20043;-59
2023/11/14 04:01:52;;;;;;;5.63;3.22;;;25.10;99.90;;;;;;4974748;28;20385;-59
2023/11/14 04:04:18;;;;;;;3.95;3.40;;;25.10;99.90;;;;;;4972869;28;20427;-58
2023/11/14 04:06:44;;;;;;;3.55;2.55;;;25.10;99.90;;;;;;4986900;28;20034;-58
2023/11/14 04:09:13;;;;;;;6.53;3.33;;;25.10;99.90;;;;;;4971689;28;20030;-58
2023/11/14 04:11:48;;;;;;;4.20;3.00;;;25.10;99.90;;;;;;4975656;28;20109;-59
2023/11/14 04:14:15;;;;;;;4.80;2.80;;;25.10;99.90;;;;;;4972085;28;20484;-59
2023/11/14 04:16:41;;;;;;;3.60;2.67;;;25.10;99.90;;;;;;4972121;28;20431;-58
2023/11/14 04:19:07;;;;;;;6.15;3.92;;;25.10;99.90;;;;;;4973259;28;20375;-58
2023/11/14 04:21:33;;;;;;;4.55;3.58;;;25.00;99.90;;;;;;4988584;28;20058;-58
2023/11/14 04:23:59;;;;;;;3.47;3.15;;;25.00;99.90;;;;;;4972754;28;20038;-58
2023/11/14 04:26:25;;;;;;;5.55;3.25;;;25.00;99.90;;;;;;4972557;28;20034;-58
2023/11/14 04:28:51;;;;;;;4.70;3.45;;;25.00;99.90;;;;;;4974127;28;20105;-58
2023/11/14 04:31:17;;;;;;;6.63;3.47;;;25.00;99.90;;;;;;4972605;28;20174;-58
2023/11/14 04:33:43;;;;;;;5.22;3.40;;;25.00;99.90;;;;;;4972613;28;20034;-57
2023/11/14 04:36:09;;;;;;;5.28;3.55;;;25.00;99.90;;;;;;4972252;28;20030;-58
2023/11/14 04:38:36;;;;;;;4.07;3.35;;;25.00;99.90;;;;;;4989590;28;20094;-58
2023/11/14 04:41:02;;;;;;;3.78;3.13;;;25.00;99.90;;;;;;4987473;28;20050;-60
2023/11/14 04:43:28;;;;;;;5.82;3.15;;;25.00;99.90;;;;;;4972162;28;20121;-58
2023/11/14 04:45:54;;;;;;;5.10;3.35;;;25.00;99.90;;;;;;4972643;28;20745;-58
2023/11/14 04:48:19;;;;;;;3.80;3.00;;;25.00;99.90;;;;;;4974285;28;20062;-58
2023/11/14 04:50:45;;;;;;;5.70;3.78;;;25.00;99.90;;;;;;4972246;28;20109;-58
2023/11/14 04:53:11;;;;;;;4.45;3.40;;;25.00;99.90;;;;;;4973582;28;20038;-58
2023/11/14 04:55:37;;;;;;;4.22;3.40;;;24.90;99.90;;;;;;4972710;28;20555;-58
2023/11/14 04:58:03;;;;;;;6.47;3.58;;;25.00;99.90;;;;;;4972968;28;20075;-58
2023/11/14 05:00:29;;;;;;;5.93;3.80;;;24.90;99.90;;;;;;4972414;28;20507;-57
2023/11/14 05:02:55;;;;;;;4.43;3.15;;;24.90;99.90;;;;;;4972356;28;20391;-57
2023/11/14 05:05:21;;;;;;;5.40;3.42;;;24.90;99.90;;;;;;4974521;28;20031;-57
2023/11/14 05:07:47;;;;;;;4.70;3.10;;;24.90;99.90;;;;;;4972407;28;20126;-56
2023/11/14 05:10:13;;;;;;;5.90;3.40;;;24.90;99.90;;;;;;4972051;28;20045;-56
2023/11/14 05:12:39;;;;;;;5.32;3.55;;;24.90;99.90;;;;;;4973524;28;20042;-56
2023/11/14 05:15:07;;;;;;;4.57;3.20;;;24.90;99.90;;;;;;4977235;28;20030;-56
2023/11/14 05:17:34;;;;;;;5.63;3.70;;;24.90;99.90;;;;;;4975917;28;20444;-58
2023/11/14 05:20:01;;;;;;;6.40;3.13;;;24.90;99.90;;;;;;4975384;28;20113;-57
2023/11/14 05:22:27;;;;;;;7.95;3.83;;;24.90;99.90;;;;;;4976565;28;20487;-58
2023/11/14 05:24:53;;;;;;;9.70;3.63;;;24.80;99.90;;;;;;4976246;28;20487;-56
2023/11/14 05:27:19;;;;;;;8.73;3.58;;;24.80;99.90;;;;;;4975742;28;20056;-56
2023/11/14 05:29:45;;;;;;;15.10;4.00;;;24.80;99.90;;;;;;4974557;28;20062;-57
2023/11/14 05:32:11;;;;;;;3.97;3.45;;;24.80;99.90;;;;;;4979153;28;20138;-57
2023/11/14 05:34:37;;;;;;;6.68;3.30;;;24.80;99.90;;;;;;4975434;28;20043;-57
2023/11/14 05:37:04;;;;;;;7.28;3.72;;;24.80;99.90;;;;;;4975532;28;20114;-59
2023/11/14 05:39:30;;;;;;;11.20;3.63;;;24.80;99.90;;;;;;4975585;28;20031;-59
2023/11/14 05:41:56;;;;;;;5.53;3.03;;;24.80;99.90;;;;;;4978325;28;20093;-56
2023/11/14 05:44:21;;;;;;;7.05;3.45;;;24.80;99.90;;;;;;4974349;28;20077;-56
2023/11/14 05:46:47;;;;;;;8.25;3.80;;;24.80;99.90;;;;;;4973436;28;20038;-56
2023/11/14 05:49:13;;;;;;;6.35;3.28;;;24.80;99.90;;;;;;4975482;28;20331;-57
2023/11/14 05:51:39;;;;;;;9.30;3.85;;;24.70;99.90;;;;;;4974938;28;20031;-57
2023/11/14 05:54:05;;;;;;;5.88;3.78;;;24.70;99.90;;;;;;4975113;28;20034;-57
2023/11/14 05:56:31;;;;;;;7.18;3.38;;;24.70;99.90;;;;;;4975024;28;20034;-57
2023/11/14 05:58:57;;;;;;;8.00;3.28;;;24.70;99.90;;;;;;4977573;28;20019;-57
2023/11/14 06:01:23;;;;;;;7.15;3.20;;;24.70;99.90;;;;;;4989594;28;20385;-57
2023/11/14 06:03:49;;;;;;;7.22;3.63;;;24.70;99.90;;;;;;4974896;28;20038;-57
2023/11/14 06:06:15;;;;;;;6.70;3.15;;;24.70;99.90;;;;;;4974132;28;20020;-58
2023/11/14 06:08:42;;;;;;;7.35;3.28;;;24.70;99.90;;;;;;4983043;28;20369;-58
2023/11/14 06:11:09;;;;;;;6.63;3.70;;;24.70;99.90;;;;;;4975062;28;20023;-58
2023/11/14 06:13:35;;;;;;;5.93;3.35;;;24.70;99.90;;;;;;4974706;28;20105;-58
2023/11/14 06:16:01;;;;;;;5.97;3.67;;;24.70;99.90;;;;;;4974888;28;20023;-58
2023/11/14 06:18:30;;;;;;;7.35;3.22;;;24.70;99.90;;;;;;4976831;28;20023;-58
2023/11/14 06:21:00;;;;;;;6.82;3.45;;;24.70;99.90;;;;;;4974729;28;20031;-57
2023/11/14 06:23:26;;;;;;;6.75;3.75;;;24.70;99.90;;;;;;4972974;28;20019;-57
2023/11/14 06:25:52;;;;;;;6.82;3.35;;;24.70;99.90;;;;;;4976309;28;20475;-57
2023/11/14 06:28:20;;;;;;;5.72;3.35;;;24.70;99.90;;;;;;4975394;28;20128;-58
2023/11/14 06:30:45;;;;;;;5.05;3.42;;;24.70;99.90;;;;;;4973101;28;20503;-57
2023/11/14 06:33:11;;;;;;;5.53;3.28;;;24.70;99.90;;;;;;4973203;28;20323;-57
2023/11/14 06:35:37;;;;;;;5.75;3.42;;;24.60;99.90;;;;;;4975181;28;20035;-57
2023/11/14 06:38:04;;;;;;;9.52;3.58;;;24.60;99.90;;;;;;4974290;28;20022;-57
2023/11/14 06:40:30;;;;;;;9.03;3.30;;;24.60;99.90;;;;;;4973960;28;20035;-57
2023/11/14 06:42:55;;;;;;;13.27;3.47;;;24.60;99.90;;;;;;4973320;28;20443;-58
2023/11/14 06:45:22;;;;;;;5.18;2.90;;;24.60;99.90;;;;;;4976915;28;20439;-58
2023/11/14 06:47:48;;;;;;;7.75;3.15;;;24.60;99.90;;;;;;4974315;28;20026;-58
2023/11/14 06:50:13;;;;;;;5.70;3.78;;;24.60;99.90;;;;;;4973678;28;20492;-57
2023/11/14 06:52:39;;;;;;;6.82;3.45;;;24.60;99.90;;;;;;4975582;28;20030;-58
2023/11/14 06:55:05;;;;;;;5.95;3.33;;;24.60;99.90;;;;;;4974451;28;20553;-59
2023/11/14 06:57:32;;;;;;;6.95;3.35;;;24.60;99.90;;;;;;4972531;28;20034;-59
2023/11/14 07:00:00;;;;;;;6.07;3.75;;;24.60;99.90;;;;;;4972665;28;20023;-58
2023/11/14 07:02:25;;;;;;;5.35;3.55;;;24.60;99.90;;;;;;4972519;28;20061;-57
2023/11/14 07:04:51;;;;;;;5.50;3.28;;;24.50;99.90;;;;;;4972580;28;20023;-58
2023/11/14 07:07:17;;;;;;;3.83;2.85;;;24.50;99.90;;;;;;4971367;28;20385;-58
2023/11/14 07:09:43;;;;;;;4.32;3.20;;;24.50;99.90;;;;;;4972547;28;20464;-58
2023/11/14 07:12:10;;;;;;;5.00;2.60;;;24.50;99.90;;;;;;4973734;28;20341;-57
2023/11/14 07:14:36;;;;;;;7.20;3.30;;;24.50;99.90;;;;;;4974456;28;20078;-57
2023/11/14 07:17:02;;;;;;;7.38;3.67;;;24.50;99.90;;;;;;4974499;28;20034;-56
2023/11/14 07:19:28;;;;;;;5.82;2.90;;;24.50;99.90;;;;;;4974487;28;20062;-57
2023/11/14 07:21:55;;;;;;;5.95;3.42;;;24.50;99.90;;;;;;4974340;28;20023;-56
2023/11/14 07:24:21;;;;;;;7.28;3.33;;;24.50;99.90;;;;;;4974419;28;20022;-56
2023/11/14 07:26:49;;;;;;;6.10;3.45;;;24.50;99.90;;;;;;4974242;28;20023;-56
2023/11/14 07:29:15;;;;;;;;;;;24.50;99.90;;;;;;4974772;28;20391;-56
2023/11/14 07:31:44;;;;;;;8.57;3.75;;;24.50;99.90;;;;;;4974424;28;19934;-57
2023/11/14 07:34:10;;;;;;;6.05;4.10;;;24.60;99.90;;;;;;4974195;28;20038;-57
2023/11/14 07:36:36;;;;;;;7.35;3.47;;;24.60;99.90;;;;;;4973625;28;20027;-56
2023/11/14 07:39:02;;;;;;;5.55;3.38;;;24.60;99.90;;;;;;4974073;28;20566;-57
2023/11/14 07:41:27;;;;;;;3.53;2.67;;;24.60;99.90;;;;;;4973878;28;20038;-57
2023/11/14 07:43:54;;;;;;;5.10;2.85;;;24.60;99.90;;;;;;4973986;28;20042;-57
2023/11/14 07:46:21;;;;;;;6.22;2.65;;;24.70;99.90;;;;;;4973972;28;20094;-57
2023/11/14 07:48:47;;;;;;;6.55;3.20;;;24.70;99.90;;;;;;4973939;28;20023;-57
2023/11/14 07:51:13;;;;;;;5.95;3.22;;;24.70;99.90;;;;;;4974183;28;20019;-59
2023/11/14 07:53:39;;;;;;;5.72;2.90;;;24.70;99.90;;;;;;4973981;28;20101;-59
2023/11/14 07:56:05;;;;;;;5.90;3.03;;;24.70;99.90;;;;;;4973659;28;20052;-59
2023/11/14 07:58:31;;;;;;;7.45;3.58;;;24.80;99.90;;;;;;4973778;28;20031;-60
2023/11/14 08:00:57;;;;;;;5.38;3.45;;;24.80;99.90;;;;;;4973557;28;20049;-59
2023/11/14 08:03:23;;;;;;;5.95;3.33;;;24.80;99.90;;;;;;4973674;28;20057;-60
2023/11/14 08:05:49;;;;;;;5.75;3.20;;;24.80;99.90;;;;;;4973663;28;20022;-59
2023/11/14 08:08:15;;;;;;;9.45;3.10;;;24.80;99.90;;;;;;4972125;28;20125;-57
2023/11/14 08:10:41;;;;;;;5.90;3.47;;;24.90;99.90;;;;;;4988774;28;20042;-56
2023/11/14 08:13:08;;;;;;;5.22;2.70;;;24.90;99.90;;;;;;4973645;28;20035;-56
2023/11/14 08:15:34;;;;;;;6.20;3.28;;;24.90;99.90;;;;;;4973701;28;20027;-56
2023/11/14 08:18:00;;;;;;;4.57;2.90;;;25.00;99.90;;;;;;4973430;28;20102;-56
2023/11/14 08:20:28;;;;;;;4.90;3.08;;;25.00;99.90;;;;;;4973459;28;20054;-57
2023/11/14 08:22:54;;;;;;;7.90;3.60;;;25.00;99.90;;;;;;4973259;28;20464;-57
2023/11/14 08:25:20;;;;;;;5.18;3.13;;;25.00;99.90;;;;;;4973584;28;20027;-56
2023/11/14 08:27:48;;;;;;;6.38;3.42;;;25.10;99.90;;;;;;4972470;28;20034;-56
2023/11/14 08:30:14;;;;;;;;;;;25.10;99.90;;;;;;4972444;28;20169;-56
2023/11/14 08:32:40;;;;;;;5.38;3.10;;;25.10;99.90;;;;;;4973303;28;19934;-55
2023/11/14 08:35:07;;;;;;;7.32;3.58;;;25.20;99.90;;;;;;4973301;28;20029;-56
2023/11/14 08:37:33;;;;;;;4.40;3.05;;;25.20;99.90;;;;;;4973315;28;20372;-56
2023/11/14 08:39:58;;;;;;;5.35;2.67;;;25.30;99.90;;;;;;4988111;28;20041;-56
2023/11/14 08:42:24;;;;;;;5.95;2.90;;;25.30;99.90;;;;;;4973100;28;20045;-56
2023/11/14 08:44:50;;;;;;;4.75;3.15;;;25.30;99.90;;;;;;4973308;28;20051;-56
2023/11/14 08:47:16;;;;;;;4.35;2.80;;;25.40;99.90;;;;;;4974824;28;20030;-56
2023/11/14 08:49:42;;;;;;;4.38;2.80;;;25.40;99.90;;;;;;4977327;28;20099;-56
2023/11/14 08:52:07;;;;;;;9.15;2.97;;;25.40;99.90;;;;;;4991970;28;20031;-56
2023/11/14 08:54:33;;;;;;;4.13;3.00;;;25.40;99.90;;;;;;4977192;28;20117;-56
2023/11/14 08:56:59;;;;;;;5.57;2.85;;;25.50;99.90;;;;;;4975857;28;20039;-57
2023/11/14 08:59:25;;;;;;;4.10;3.05;;;25.50;99.90;;;;;;4977083;28;20027;-57
2023/11/14 09:01:51;;;;;;;5.65;3.13;;;25.50;99.90;;;;;;4976658;28;20408;-57
2023/11/14 09:04:18;;;;;;;5.22;2.75;;;25.50;99.90;;;;;;4977092;28;20035;-58
2023/11/14 09:06:44;;;;;;;4.50;3.05;;;25.60;99.90;;;;;;4977096;28;20023;-57
2023/11/14 09:09:10;;;;;;;4.13;3.03;;;25.60;99.90;;;;;;4976753;28;20034;-58
2023/11/14 09:11:38;;;;;;;5.22;3.13;;;25.70;99.90;;;;;;4976921;28;20027;-57
2023/11/14 09:14:03;;;;;;;4.55;2.53;;;25.70;99.90;;;;;;4976662;28;20023;-57
2023/11/14 09:16:29;;;;;;;4.85;2.55;;;25.70;99.90;;;;;;4976599;28;20023;-57
2023/11/14 09:18:56;;;;;;;5.93;3.08;;;25.80;99.90;;;;;;4976609;28;20365;-57
2023/11/14 09:21:21;;;;;;;5.78;2.92;;;25.80;99.90;;;;;;4976443;28;20034;-57
2023/11/14 09:23:47;;;;;;;6.20;2.70;;;25.80;99.90;;;;;;4976878;28;20434;-57
2023/11/14 09:26:13;;;;;;;5.15;2.90;;;25.80;99.90;;;;;;4976621;28;20045;-57
2023/11/14 09:28:40;;;;;;;6.75;3.38;;;25.90;99.90;;;;;;4976557;28;20045;-57
2023/11/14 09:31:07;;;;;;;4.82;2.70;;;25.90;99.90;;;;;;4976368;28;20031;-57
2023/11/14 09:33:33;;;;;;;10.20;3.22;;;25.90;99.90;;;;;;4976567;28;20023;-57
2023/11/14 09:35:59;;;;;;;7.82;3.08;;;26.00;99.90;;;;;;4976256;28;20098;-57
2023/11/14 09:38:25;;;;;;;8.18;2.97;;;26.00;99.90;;;;;;4976268;28;20105;-58
2023/11/14 09:40:51;;;;;;;9.07;3.10;;;26.00;99.90;;;;;;4976332;28;20050;-57
2023/11/14 09:43:17;;;;;;;10.25;3.95;;;26.10;99.90;;;;;;4976282;28;20470;-57
2023/11/14 09:45:47;;;;;;;6.28;2.88;;;26.10;99.90;;;;;;4976024;28;20026;-57
2023/11/14 09:48:12;;;;;;;6.15;3.10;;;26.20;99.90;;;;;;4974853;28;20117;-57
2023/11/14 09:50:41;;;;;;;6.90;2.90;;;26.20;99.90;;;;;;4976099;28;20097;-57
2023/11/14 09:53:07;;;;;;;7.72;3.40;;;26.20;99.90;;;;;;4976068;28;20459;-57
2023/11/14 09:55:33;;;;;;;6.50;3.35;;;26.30;99.90;;;;;;4976088;28;20023;-57
2023/11/14 09:58:02;;;;;;;11.88;3.13;;;26.30;99.90;;;;;;4974944;28;20094;-57
2023/11/14 10:00:29;;;;;;;8.18;2.97;;;26.40;99.90;;;;;;4975808;28;20019;-58
2023/11/14 10:02:57;;;;;;;5.50;3.40;;;26.40;99.90;;;;;;4975855;28;20070;-57
2023/11/14 10:05:22;;;;;;;;;;;26.50;99.90;;;;;;4976417;28;20030;-58
2023/11/14 10:07:53;;;;;;;6.30;3.15;;;26.50;99.90;;;;;;4976049;28;19906;-58
2023/11/14 10:10:19;;;;;;;6.07;2.83;;;26.60;99.90;;;;;;4976013;28;20058;-58
2023/11/14 10:12:45;;;;;;;5.55;3.28;;;26.60;99.90;;;;;;4975648;28;20116;-57
2023/11/14 10:15:11;;;;;;;6.70;3.15;;;26.70;99.90;;;;;;4975701;28;20031;-57
2023/11/14 10:17:45;;;;;;;6.18;2.90;;;26.70;99.90;;;;;;4975679;28;20384;-57
2023/11/14 10:20:12;;;;;;;4.80;3.20;;;26.70;99.90;;;;;;4975414;28;20022;-57
2023/11/14 10:22:52;;;;;;;9.27;3.25;;;26.80;99.90;;;;;;4975340;28;20038;-58
2023/11/14 10:25:40;;;;;;;5.57;3.78;;;26.90;99.90;;;;;;4975358;28;20039;-59
2023/11/14 10:28:07;;;;;;;3.85;2.85;;;26.90;99.90;;;;;;4975459;28;20026;-58
2023/11/14 10:30:46;;;;;;;4.50;2.95;;;26.90;99.90;;;;;;4975210;28;20491;-57
2023/11/14 10:33:12;;;;;;;7.60;3.13;;;27.00;99.90;;;;;;4975281;28;20041;-58
2023/11/14 10:35:40;;;;;;;5.30;3.20;;;27.00;99.90;;;;;;4975483;28;20101;-58
2023/11/14 10:38:25;;;;;;;7.82;3.38;;;27.10;99.90;;;;;;4975399;28;20034;-58
2023/11/14 10:40:53;;;;;;;8.95;3.22;;;27.10;99.90;;;;;;4975149;28;20026;-56
2023/11/14 10:43:32;;;;;;;6.90;3.50;;;27.10;99.90;;;;;;4974929;28;20046;-56
2023/11/14 10:46:09;;;;;;;4.63;3.10;;;27.20;99.90;;;;;;4973812;28;20030;-57
2023/11/14 10:48:36;;;;;;;5.32;3.17;;;27.20;99.90;;;;;;4975225;28;20057;-57
2023/11/14 10:51:06;;;;;;;4.85;2.58;;;27.30;99.90;;;;;;4974907;28;20381;-57
2023/11/14 10:53:32;;;;;;;4.68;3.00;;;27.30;99.90;;;;;;4974884;28;20050;-57
2023/11/14 10:56:00;;;;;;;8.25;3.55;;;27.30;99.90;;;;;;4974746;28;20464;-56
2023/11/14 10:58:26;;;;;;;6.03;2.70;;;27.30;99.90;;;;;;4974702;28;20026;-57
2023/11/14 11:00:51;;;;;;;6.18;2.67;;;27.40;99.90;;;;;;4974587;28;20049;-57
2023/11/14 11:03:18;;;;;;;4.75;2.40;;;27.40;99.90;;;;;;4975069;28;20170;-57
2023/11/14 11:05:47;;;;;;;5.53;3.03;;;27.40;99.90;;;;;;4974907;28;20102;-57
2023/11/14 11:08:13;;;;;;;5.38;2.90;;;27.50;99.90;;;;;;4974812;28;20403;-56
2023/11/14 11:10:40;;;;;;;7.55;2.90;;;27.50;99.90;;;;;;4974824;28;20361;-56
2023/11/14 11:13:17;;;;;;;6.35;2.78;;;27.50;99.90;;;;;;4974879;28;20019;-56
2023/11/14 11:15:44;;;;;;;8.35;2.80;;;27.50;99.90;;;;;;4974414;28;20031;-55
2023/11/14 11:18:10;;;;;;;4.70;3.05;;;27.60;99.90;;;;;;4974640;28;20026;-56
2023/11/14 11:20:36;;;;;;;9.38;2.85;;;27.60;99.90;;;;;;4974547;28;20035;-55
2023/11/14 11:23:04;;;;;;;4.72;2.88;;;27.60;99.90;;;;;;4974348;28;20049;-56
2023/11/14 11:25:31;;;;;;;5.13;3.20;;;27.70;99.90;;;;;;4974352;28;20034;-56
2023/11/14 11:28:32;;;;;;;3.50;2.80;;;27.70;99.90;;;;;;4974231;28;20030;-56
2023/11/14 11:31:15;;;;;;;6.10;2.25;;;27.70;99.90;;;;;;4974184;28;20506;-56
2023/11/14 11:33:45;;;;;;;3.83;2.75;;;27.80;99.90;;;;;;4974352;28;20567;-56
2023/11/14 11:36:29;;;;;;;4.18;2.35;;;27.80;99.90;;;;;;4974335;28;20463;-56
2023/11/14 11:39:04;;;;;;;3.72;2.55;;;27.80;99.90;;;;;;4973960;28;20118;-56
2023/11/14 11:41:53;;;;;;;6.70;2.97;;;27.80;99.90;;;;;;4973979;28;20023;-56
2023/11/14 11:44:19;;;;;;;4.13;3.10;;;27.90;99.90;;;;;;4973957;28;20128;-57
2023/11/14 11:46:45;;;;;;;6.25;3.05;;;27.80;99.90;;;;;;4973993;28;20374;-57
2023/11/14 11:49:16;;;;;;;6.60;3.03;;;27.90;99.90;;;;;;4974009;28;20027;-56
2023/11/14 11:51:48;;;;;;;3.70;2.50;;;27.90;99.90;;;;;;4974042;28;20263;-56
2023/11/14 11:54:31;;;;;;;5.13;2.45;;;27.90;99.90;;;;;;4973848;28;20039;-56
2023/11/14 11:57:15;;;;;;;7.38;2.55;;;28.00;99.90;;;;;;4973683;28;20026;-56
2023/11/14 11:59:40;;;;;;;5.88;3.20;;;27.90;99.90;;;;;;4973913;28;20030;-56
2023/11/14 12:02:13;;;;;;;4.53;2.85;;;28.00;99.90;;;;;;4973360;28;20398;-56
2023/11/14 12:04:39;;;;;;;10.15;3.25;;;28.00;99.90;;;;;;4973922;28;20234;-56
2023/11/14 12:07:06;;;;;;;5.60;3.05;;;28.00;99.90;;;;;;4973632;28;20023;-56
2023/11/14 12:09:32;;;;;;;6.70;3.33;;;28.00;99.90;;;;;;4973568;28;20109;-56
2023/11/14 12:11:58;;;;;;;8.48;2.83;;;28.10;99.90;;;;;;4973479;28;20033;-57
2023/11/14 12:14:26;;;;;;;5.05;2.42;;;28.10;99.90;;;;;;4973539;28;20027;-58
2023/11/14 12:16:52;;;;;;;6.70;3.10;;;28.10;99.90;;;;;;4973485;28;20106;-57
2023/11/14 12:19:18;;;;;;;5.05;3.00;;;28.10;99.90;;;;;;4972243;28;20110;-57
2023/11/14 12:21:47;;;;;;;5.20;3.10;;;28.10;99.90;;;;;;4973158;28;20085;-57
2023/11/14 12:24:14;;;;;;;9.30;2.42;;;28.10;99.90;;;;;;4972345;28;20132;-57
2023/11/14 12:26:40;;;;;;;5.20;2.90;;;28.20;99.90;;;;;;4973537;28;20494;-57
2023/11/14 12:29:10;;;;;;;6.72;2.45;;;28.20;99.90;;;;;;4973357;28;20035;-57
2023/11/14 12:31:36;;;;;;;6.68;3.05;;;28.20;99.90;;;;;;4973309;28;20041;-57
2023/11/14 12:34:04;;;;;;;7.32;3.10;;;28.20;99.90;;;;;;4973444;28;20106;-57
2023/11/14 12:36:30;;;;;;;6.85;3.15;;;28.20;99.90;;;;;;4972266;28;20366;-57
2023/11/14 12:39:16;;;;;;;4.85;2.33;;;28.20;99.90;;;;;;4973332;28;20019;-58
2023/11/14 12:41:43;;;;;;;4.47;2.72;;;28.20;99.90;;;;;;4973249;28;20043;-57
2023/11/14 12:44:11;;;;;;;3.83;2.88;;;28.30;99.90;;;;;;4973227;28;20509;-57
2023/11/14 12:46:38;;;;;;;7.60;2.90;;;28.30;99.90;;;;;;4973144;28;20495;-58